Time;durP1;ratioP1;P1;durP2;ratioP2;P2;SDS_P1;SDS_P2;PMS_P1;PMS_P2;Temp;Humidity;BMP_temperature;BMP_pressure;BME280_temperature;BME280_humidity;BME280_pressure;Samples;Min_cycle;Max_cycle;Signal;HPM_P1;HPM_P2
2022/11/11 00:01:31;;;;;;;26.15;12.55;;;;;;;9.83;100.00;102907.31;7379748;19;20017;-80
2022/11/11 00:04:05;;;;;;;27.30;13.93;;;;;;;9.85;100.00;102917.88;7380382;19;20022;-74
2022/11/11 00:06:43;;;;;;;29.33;14.25;;;;;;;9.79;100.00;102910.59;7378422;19;20026;-73
2022/11/11 00:09:23;;;;;;;27.05;13.48;;;;;;;9.72;100.00;102918.09;7378324;19;20565;-74
2022/11/11 00:15:15;;;;;;;27.90;13.10;;;;;;;9.68;100.00;102939.72;7377821;19;20017;-73
2022/11/11 00:26:25;;;;;;;36.58;14.50;;;;;;;9.63;100.00;102930.72;7378268;19;20022;-74
2022/11/11 00:29:28;;;;;;;26.20;13.52;;;;;;;9.60;100.00;102930.56;7376776;19;20011;-74
2022/11/11 00:32:33;;;;;;;32.75;14.25;;;;;;;9.56;100.00;102921.66;7372634;19;20018;-74
2022/11/11 00:41:27;;;;;;;28.60;15.77;;;;;;;9.47;100.00;102919.47;7370381;19;20006;-74
2022/11/11 00:43:59;;;;;;;31.35;15.50;;;;;;;9.50;100.00;102911.78;7374121;19;20115;-74
2022/11/11 00:52:05;;;;;;;37.88;16.10;;;;;;;9.49;100.00;102912.59;7375979;19;20030;-74
2022/11/11 00:54:40;;;;;;;36.15;15.88;;;;;;;9.50;100.00;102893.44;7376904;19;20456;-74
2022/11/11 00:57:31;;;;;;;33.30;15.30;;;;;;;9.54;100.00;102885.72;7378508;19;20022;-74
2022/11/11 01:00:16;;;;;;;36.95;16.17;;;;;;;9.51;100.00;102890.00;7375200;19;20425;-75
2022/11/11 01:02:49;;;;;;;39.58;16.60;;;;;;;9.49;100.00;102889.03;7374625;19;20069;-75
2022/11/11 01:08:58;;;;;;;33.42;16.25;;;;;;;9.53;100.00;102890.06;7373873;19;20037;-74
2022/11/11 01:11:48;;;;;;;39.78;14.48;;;;;;;9.54;100.00;102893.59;7373383;19;20011;-74
2022/11/11 01:14:20;;;;;;;37.92;16.50;;;;;;;9.44;100.00;102901.00;7376979;19;20010;-75
2022/11/11 01:16:53;;;;;;;42.15;16.38;;;;;;;9.44;100.00;102901.00;7377120;19;20014;-81
2022/11/11 01:19:23;;;;;;;35.03;16.48;;;;;;;9.41;100.00;102882.50;7379134;19;20002;-81
2022/11/11 01:22:01;;;;;;;37.90;17.30;;;;;;;9.44;100.00;102892.22;7379371;19;20010;-75
2022/11/11 01:24:40;;;;;;;37.08;15.70;;;;;;;9.44;100.00;102898.38;7375569;19;20002;-75
2022/11/11 01:27:12;;;;;;;41.35;18.48;;;;;;;9.40;100.00;102891.19;7374687;19;20015;-75
2022/11/11 01:29:43;;;;;;;44.33;17.57;;;;;;;9.37;100.00;102897.97;7375745;19;20011;-81
2022/11/11 01:32:13;;;;;;;36.05;16.98;;;;;;;9.32;100.00;102884.69;7379435;19;20938;-80
2022/11/11 01:34:43;;;;;;;39.30;17.33;;;;;;;9.32;100.00;102884.69;7378330;19;20074;-80
2022/11/11 01:37:15;;;;;;;38.97;16.58;;;;;;;9.30;100.00;102878.47;7380280;19;20489;-81
2022/11/11 01:39:45;;;;;;;43.05;18.50;;;;;;;9.37;100.00;102892.75;7370709;19;20014;-81
2022/11/11 01:42:14;;;;;;;38.13;17.15;;;;;;;9.32;100.00;102883.78;7376281;19;20026;-81
2022/11/11 01:44:47;;;;;;;35.33;16.75;;;;;;;9.33;100.00;102893.44;7378016;19;20023;-81
2022/11/11 01:47:18;;;;;;;36.38;17.52;;;;;;;9.34;100.00;102897.84;7378091;19;20343;-81
2022/11/11 01:49:51;;;;;;;39.80;17.70;;;;;;;9.30;100.00;102902.03;7379817;19;20031;-80
2022/11/11 01:52:28;;;;;;;40.05;16.35;;;;;;;9.31;100.00;102898.59;7376729;19;20070;-80
2022/11/11 01:55:01;;;;;;;43.47;18.58;;;;;;;9.32;100.00;102905.63;7378899;19;20006;-80
2022/11/11 01:57:37;;;;;;;43.40;17.30;;;;;;;9.30;100.00;102895.91;7377897;19;20010;-80
2022/11/11 02:00:13;;;;;;;38.22;16.20;;;;;;;9.30;100.00;102896.81;7376094;19;20025;-74
2022/11/11 02:02:56;;;;;;;39.43;17.80;;;;;;;9.31;100.00;102884.59;7376835;19;20053;-76
2022/11/11 02:05:44;;;;;;;40.70;19.10;;;;;;;9.29;100.00;102884.53;7377981;19;20030;-74
2022/11/11 02:08:35;;;;;;;42.67;15.90;;;;;;;9.31;100.00;102898.59;7374501;19;20049;-75
2022/11/11 02:11:10;;;;;;;;;;;;;;;9.31;100.00;102882.00;7376677;19;20010;-75
2022/11/11 02:16:36;;;;;;;40.83;18.20;;;;;;;9.27;100.00;102891.41;7376403;19;20014;-75
2022/11/11 02:19:26;;;;;;;42.40;18.83;;;;;;;9.21;100.00;102890.19;7371933;19;20362;-75
2022/11/11 02:22:12;;;;;;;36.92;17.45;;;;;;;9.30;100.00;102878.47;7374762;19;20085;-74
2022/11/11 02:24:51;;;;;;;38.40;17.15;;;;;;;9.28;100.00;102894.94;7375173;19;20011;-74
2022/11/11 02:27:23;;;;;;;40.88;17.55;;;;;;;9.21;100.00;102891.09;7373531;19;20018;-75
2022/11/11 02:33:05;;;;;;;43.30;17.95;;;;;;;9.16;100.00;102892.56;7375108;19;20033;-75
2022/11/11 02:35:40;;;;;;;42.30;18.02;;;;;;;9.12;100.00;102888.00;7374316;19;20015;-74
2022/11/11 02:38:16;;;;;;;43.88;18.50;;;;;;;9.09;100.00;102890.47;7373427;19;20017;-75
2022/11/11 02:43:40;;;;;;;42.28;18.77;;;;;;;9.04;100.00;102897.19;7371556;19;20078;-75
2022/11/11 02:46:20;;;;;;;43.58;21.10;;;;;;;9.07;100.00;102887.75;7373192;19;20356;-75
2022/11/11 02:49:02;;;;;;;37.92;17.35;;;;;;;9.06;100.00;102890.31;7373536;19;20545;-75
2022/11/11 02:51:34;;;;;;;46.55;20.00;;;;;;;9.09;100.00;102893.06;7372130;19;20046;-75
2022/11/11 02:54:10;;;;;;;48.80;19.88;;;;;;;9.12;100.00;102890.63;7370274;19;20129;-74
2022/11/11 02:59:24;;;;;;;48.55;21.42;;;;;;;9.06;100.00;102885.06;7376024;19;20011;-81
2022/11/11 03:01:55;;;;;;;48.42;20.38;;;;;;;9.08;100.00;102876.47;7375184;19;20027;-81
2022/11/11 03:04:25;;;;;;;45.28;20.15;;;;;;;9.08;100.00;102888.66;7374412;19;20105;-80
2022/11/11 03:06:55;;;;;;;40.58;19.15;;;;;;;9.09;100.00;102882.59;7376274;19;20015;-81
2022/11/11 03:09:25;;;;;;;44.25;19.38;;;;;;;9.06;100.00;102890.31;7377327;19;20074;-81
2022/11/11 03:11:58;;;;;;;49.97;19.63;;;;;;;9.05;100.00;102896.34;7375857;19;20085;-80
2022/11/11 03:14:28;;;;;;;35.03;16.20;;;;;;;9.06;100.00;102895.53;7378483;19;20248;-80
2022/11/11 03:19:40;;;;;;;43.00;18.42;;;;;;;9.04;100.00;102898.06;7376482;19;20048;-81
2022/11/11 03:22:07;;;;;;;44.90;19.30;;;;;;;9.03;100.00;102900.63;7382275;19;20463;-82
2022/11/11 03:27:43;;;;;;;42.05;19.35;;;;;;;9.03;100.00;102903.22;7378664;19;20356;-80
2022/11/11 03:30:13;;;;;;;43.10;19.20;;;;;;;9.06;100.00;102906.91;7381691;19;20021;-81
2022/11/11 03:32:45;;;;;;;40.92;18.05;;;;;;;9.09;100.00;102906.16;7382085;19;20623;-80
2022/11/11 03:35:15;;;;;;;44.22;18.58;;;;;;;9.04;100.00;102902.41;7385188;19;20078;-81
2022/11/11 03:40:27;;;;;;;42.58;18.13;;;;;;;8.93;100.00;102903.56;7381755;19;20020;-81
2022/11/11 03:42:59;;;;;;;43.90;19.05;;;;;;;8.90;100.00;102898.16;7379892;19;20021;-80
2022/11/11 03:45:33;;;;;;;37.63;18.17;;;;;;;8.88;100.00;102891.97;7376125;19;20318;-80
2022/11/11 03:48:04;;;;;;;46.20;19.92;;;;;;;8.90;100.00;102906.03;7376641;19;20070;-79
2022/11/11 03:50:34;;;;;;;42.10;19.00;;;;;;;8.87;100.00;102911.09;7380171;19;20017;-79
2022/11/11 03:53:03;;;;;;;38.90;17.10;;;;;;;8.90;100.00;102911.25;7379067;19;20672;-79
2022/11/11 03:55:33;;;;;;;46.92;19.55;;;;;;;8.85;100.00;102917.13;7376960;19;20022;-81
2022/11/11 03:58:05;;;;;;;39.25;19.40;;;;;;;8.90;100.00;102914.78;7383235;19;20038;-81
2022/11/11 04:00:35;;;;;;;44.63;18.40;;;;;;;8.87;100.00;102921.56;7381354;19;20017;-81
2022/11/11 04:11:33;;;;;;;44.55;19.40;;;;;;;8.88;100.00;102926.88;7380255;19;20010;-74
2022/11/11 04:16:52;;;;;;;48.85;20.33;;;;;;;8.88;100.00;102933.81;7382359;19;20010;-81
2022/11/11 04:22:04;;;;;;;42.40;19.45;;;;;;;8.88;100.00;102928.59;7382825;19;20014;-81
2022/11/11 04:27:18;;;;;;;52.88;19.38;;;;;;;8.81;100.00;102917.78;7379380;19;20466;-80
2022/11/11 04:29:49;;;;;;;43.60;18.17;;;;;;;8.76;100.00;102913.13;7380242;19;20021;-81
2022/11/11 04:35:03;;;;;;;45.58;20.08;;;;;;;8.79;100.00;102913.31;7382571;19;20524;-81
2022/11/11 04:37:34;;;;;;;52.22;21.08;;;;;;;8.81;100.00;102915.19;7379328;19;20024;-80
2022/11/11 04:42:46;;;;;;;46.67;19.13;;;;;;;8.83;100.00;102905.69;7381149;19;20030;-81
2022/11/11 04:45:29;;;;;;;46.10;19.08;;;;;;;8.85;100.00;102890.06;7381913;19;20719;-82
2022/11/11 04:48:02;;;;;;;41.15;17.77;;;;;;;8.81;100.00;102894.25;7376140;19;20467;-75
2022/11/11 04:50:39;;;;;;;40.60;20.13;;;;;;;8.84;100.00;102894.41;7378470;19;20092;-75
2022/11/11 04:53:14;;;;;;;44.63;20.45;;;;;;;8.78;100.00;102895.81;7375154;19;20495;-73
2022/11/11 04:58:32;;;;;;;52.22;20.85;;;;;;;8.77;100.00;102876.59;7376077;19;20021;-75
2022/11/11 05:01:05;;;;;;;43.80;19.13;;;;;;;8.76;100.00;102884.34;7373122;19;20030;-75
2022/11/11 05:03:32;;;;;;;40.78;18.98;;;;;;;8.81;100.00;102889.00;7372840;19;20018;-76
2022/11/11 05:11:53;;;;;;;42.13;18.80;;;;;;;8.82;100.00;102903.00;7373153;19;20025;-73
2022/11/11 05:27:20;;;;;;;;;;;;;;;;;;;;;
2022/11/11 05:30:09;;;;;;;40.53;16.85;;;;;;;8.68;100.00;102907.50;7373786;19;20017;-74
2022/11/11 05:32:57;;;;;;;42.78;18.52;;;;;;;8.67;100.00;102910.03;7375968;19;20010;-74
2022/11/11 05:35:59;;;;;;;;;;;;;;;;;;;;;
2022/11/11 05:38:35;;;;;;;45.50;19.63;;;;;;;8.70;100.00;102910.19;7374410;19;22261;-74
2022/11/11 05:55:17;;;;;;;43.47;19.42;;;;;;;8.68;100.00;102933.66;7369387;19;20334;-74
2022/11/11 06:01:28;;;;;;;46.90;19.83;;;;;;;8.70;100.00;102937.25;7369242;19;20014;-74
2022/11/11 06:11:11;;;;;;;;;;;;;;;;;;;;;
2022/11/11 06:13:56;;;;;;;40.28;19.08;;;;;;;8.68;100.00;102941.50;7369374;19;20021;-74
2022/11/11 06:16:36;;;;;;;45.63;18.27;;;;;;;8.69;100.00;102939.78;7369320;19;20014;-74
2022/11/11 06:23:01;;;;;;;42.85;19.23;;;;;;;8.73;100.00;102942.66;7370387;19;20014;-74
2022/11/11 06:28:34;;;;;;;46.75;19.45;;;;;;;8.66;100.00;102943.13;7372111;19;20086;-74
2022/11/11 06:31:21;;;;;;;36.55;17.42;;;;;;;8.64;100.00;102936.91;7372876;19;20041;-74
2022/11/11 06:33:57;;;;;;;48.58;19.85;;;;;;;8.64;100.00;102942.16;7372139;19;20014;-74
2022/11/11 06:36:41;;;;;;;40.20;18.23;;;;;;;8.61;100.00;102944.59;7373969;19;20014;-74
2022/11/11 06:39:20;;;;;;;43.30;18.20;;;;;;;8.61;100.00;102947.22;7369274;19;20011;-74
2022/11/11 06:41:54;;;;;;;40.28;18.45;;;;;;;8.58;100.00;102948.75;7374375;19;20534;-73
2022/11/11 06:44:33;;;;;;;44.70;19.80;;;;;;;8.64;100.00;102946.47;7374676;19;20106;-73
2022/11/11 06:47:07;;;;;;;38.53;16.42;;;;;;;8.62;100.00;102948.09;7370589;19;20010;-73
2022/11/11 06:49:43;;;;;;;50.55;19.75;;;;;;;8.65;100.00;102945.66;7374188;19;20018;-73
2022/11/11 06:52:27;;;;;;;40.65;17.92;;;;;;;8.62;100.00;102953.34;7372238;19;20292;-73
2022/11/11 06:54:59;;;;;;;45.17;19.20;;;;;;;8.62;100.00;102955.97;7370230;19;20663;-73
2022/11/11 06:57:31;;;;;;;40.78;17.70;;;;;;;8.61;100.00;102949.81;7379500;19;20021;-73
2022/11/11 07:00:06;;;;;;;42.70;19.23;;;;;;;8.62;100.00;102953.34;7379621;19;20082;-73
2022/11/11 07:02:37;;;;;;;49.75;17.48;;;;;;;8.65;100.00;102950.88;7381933;19;20114;-74
2022/11/11 07:05:08;;;;;;;46.08;18.70;;;;;;;8.62;100.00;102954.25;7380570;19;20007;-74
2022/11/11 07:07:37;;;;;;;38.88;18.35;;;;;;;8.59;100.00;102951.47;7382699;19;20014;-74
2022/11/11 07:10:09;;;;;;;43.42;18.42;;;;;;;8.62;100.00;102959.47;7378045;19;20017;-74
2022/11/11 07:12:41;;;;;;;38.53;17.92;;;;;;;8.62;100.00;102961.19;7382995;19;20039;-74
2022/11/11 07:15:14;;;;;;;43.58;17.48;;;;;;;8.61;100.00;102964.63;7379982;19;20030;-74
2022/11/11 07:17:44;;;;;;;37.47;16.30;;;;;;;8.67;100.00;102965.84;7381313;19;20090;-74
2022/11/11 07:20:13;;;;;;;45.65;18.70;;;;;;;8.62;100.00;102964.69;7381897;19;20360;-74
2022/11/11 07:22:43;;;;;;;45.97;19.25;;;;;;;8.61;100.00;102960.28;7381824;19;20244;-74
2022/11/11 07:25:13;;;;;;;43.92;17.08;;;;;;;8.64;100.00;102978.75;7380548;19;20516;-74
2022/11/11 07:27:44;;;;;;;41.17;17.90;;;;;;;8.58;100.00;102970.59;7380514;19;20018;-74
2022/11/11 07:30:16;;;;;;;40.05;17.83;;;;;;;8.60;100.00;102971.56;7376813;19;20021;-74
2022/11/11 07:32:47;;;;;;;36.75;17.02;;;;;;;8.59;100.00;102976.72;7380276;19;20015;-76
2022/11/11 07:35:18;;;;;;;38.03;17.85;;;;;;;8.61;100.00;102975.97;7379440;19;20029;-75
2022/11/11 07:37:49;;;;;;;39.25;16.55;;;;;;;8.62;100.00;102976.88;7382584;19;20022;-74
2022/11/11 07:40:20;;;;;;;44.70;18.70;;;;;;;8.61;100.00;102975.97;7377015;19;20010;-74
2022/11/11 07:42:51;;;;;;;38.50;18.02;;;;;;;8.65;100.00;102991.03;7378195;19;20013;-74
2022/11/11 07:45:23;;;;;;;41.30;19.05;;;;;;;8.66;100.00;102992.84;7377563;19;20019;-74
2022/11/11 07:47:53;;;;;;;43.03;19.25;;;;;;;8.62;100.00;102990.84;7374480;19;20022;-74
2022/11/11 07:50:23;;;;;;;39.63;16.55;;;;;;;8.61;100.00;102988.16;7379817;19;20554;-78
2022/11/11 07:52:54;;;;;;;40.20;17.88;;;;;;;8.60;100.00;102996.81;7378107;19;20014;-78
2022/11/11 07:55:25;;;;;;;39.47;17.17;;;;;;;8.62;100.00;102989.97;7380319;19;20011;-78
2022/11/11 07:57:54;;;;;;;51.17;18.52;;;;;;;8.62;100.00;102998.72;7379966;19;20018;-78
2022/11/11 08:00:27;;;;;;;37.22;17.95;;;;;;;8.61;100.00;102994.28;7375540;19;20010;-77
2022/11/11 08:03:00;;;;;;;45.33;18.35;;;;;;;8.65;100.00;103003.22;7376361;19;20014;-78
2022/11/11 08:05:36;;;;;;;42.30;19.58;;;;;;;8.67;100.00;103005.09;7376324;19;20022;-77
2022/11/11 08:08:07;;;;;;;45.25;19.30;;;;;;;8.67;100.00;103014.66;7377149;19;20010;-77
2022/11/11 08:10:38;;;;;;;45.13;17.40;;;;;;;8.72;100.00;103006.25;7370490;19;20136;-77
2022/11/11 08:15:52;;;;;;;42.20;17.80;;;;;;;8.77;100.00;103017.88;7373775;19;20006;-77
2022/11/11 08:18:22;;;;;;;39.63;16.15;;;;;;;8.83;100.00;103022.53;7375960;19;20021;-77
2022/11/11 08:20:52;;;;;;;38.83;16.85;;;;;;;8.95;100.00;103019.69;7376181;19;20003;-77
2022/11/11 08:23:31;;;;;;;43.17;16.73;;;;;;;8.95;100.00;103024.94;7375286;19;20348;-77
2022/11/11 08:26:22;;;;;;;46.42;19.20;;;;;;;8.96;100.00;103029.34;7380792;19;20011;-74
2022/11/11 08:28:58;;;;;;;40.38;16.98;;;;;;;8.99;100.00;103037.38;7377189;19;20003;-74
2022/11/11 08:31:31;;;;;;;46.67;17.65;;;;;;;8.98;100.00;103048.66;7372658;19;20085;-74
2022/11/11 08:34:01;;;;;;;44.93;18.30;;;;;;;9.00;100.00;103049.63;7373404;19;20355;-74
2022/11/11 08:36:30;;;;;;;37.30;16.77;;;;;;;9.03;100.00;103053.31;7374163;19;20406;-74
2022/11/11 08:39:00;;;;;;;36.25;17.38;;;;;;;9.06;100.00;103055.22;7372907;19;20017;-74
2022/11/11 08:41:30;;;;;;;45.75;18.08;;;;;;;9.11;100.00;103056.34;7376666;19;20040;-74
2022/11/11 08:44:00;;;;;;;36.95;18.30;;;;;;;9.10;100.00;103060.69;7380489;19;20013;-74
2022/11/11 08:46:32;;;;;;;41.78;17.83;;;;;;;9.11;100.00;103056.34;7372932;19;20543;-73
2022/11/11 08:49:02;;;;;;;38.15;17.95;;;;;;;9.15;100.00;103058.31;7375109;19;20564;-74
2022/11/11 08:51:32;;;;;;;44.90;17.63;;;;;;;9.29;100.00;103062.59;7375154;19;20664;-74
2022/11/11 08:54:11;;;;;;;36.45;16.73;;;;;;;9.27;100.00;103061.59;7372998;19;20045;-73
2022/11/11 08:56:42;;;;;;;38.60;17.30;;;;;;;9.34;100.00;103054.97;7375008;19;20045;-74
2022/11/11 08:59:12;;;;;;;41.47;19.20;;;;;;;9.35;100.00;103055.06;7372227;19;20305;-73
2022/11/11 09:01:44;;;;;;;40.95;18.98;;;;;;;9.46;100.00;103053.88;7377675;19;20074;-76
2022/11/11 09:04:16;;;;;;;44.00;19.27;;;;;;;9.52;100.00;103054.19;7377936;19;20025;-73
2022/11/11 09:07:05;;;;;;;47.63;18.80;;;;;;;9.50;100.00;103060.19;7377106;19;20006;-76
2022/11/11 09:09:35;;;;;;;38.35;16.80;;;;;;;9.52;100.00;103062.06;7377287;19;20019;-76
2022/11/11 09:12:05;;;;;;;37.33;16.83;;;;;;;9.62;100.00;103070.41;7376311;19;20021;-75
2022/11/11 09:14:35;;;;;;;40.30;17.45;;;;;;;9.65;100.00;103065.31;7380015;19;20479;-74
2022/11/11 09:17:07;;;;;;;46.20;19.15;;;;;;;9.65;100.00;103067.94;7377638;19;20021;-76
2022/11/11 09:19:37;;;;;;;40.47;16.67;;;;;;;9.66;100.00;103072.38;7374565;19;20059;-76
2022/11/11 09:22:07;;;;;;;43.60;19.30;;;;;;;9.61;100.00;103079.09;7375784;19;20353;-76
2022/11/11 09:24:37;;;;;;;38.75;18.73;;;;;;;9.62;100.00;103079.16;7374813;19;20014;-76
2022/11/11 09:27:06;;;;;;;39.53;18.35;;;;;;;9.69;100.00;103083.91;7376500;19;20334;-77
2022/11/11 09:29:36;;;;;;;36.40;17.90;;;;;;;9.65;100.00;103084.56;7375202;19;20006;-76
2022/11/11 09:32:08;;;;;;;44.10;18.77;;;;;;;9.70;100.00;103082.19;7376644;19;20025;-76
2022/11/11 09:34:38;;;;;;;44.22;18.83;;;;;;;9.69;100.00;103080.38;7378729;19;20038;-76
2022/11/11 09:37:07;;;;;;;43.28;17.65;;;;;;;9.69;100.00;103083.91;7377744;19;20014;-77
2022/11/11 09:39:37;;;;;;;41.15;18.73;;;;;;;9.71;100.00;103091.84;7377777;19;20007;-77
2022/11/11 09:42:18;;;;;;;41.42;17.02;;;;;;;9.74;100.00;103092.00;7377663;19;20098;-76
2022/11/11 09:45:17;;;;;;;34.58;16.27;;;;;;;9.60;100.00;103093.91;7378384;19;20019;-78
2022/11/11 09:47:59;;;;;;;35.78;16.48;;;;;;;9.59;100.00;103099.97;7378472;19;20030;-76
2022/11/11 09:50:40;;;;;;;38.08;17.25;;;;;;;9.59;100.00;103106.91;7378275;19;20140;-77
2022/11/11 09:53:17;;;;;;;37.03;15.55;;;;;;;9.70;100.00;103109.28;7377706;19;20021;-76
2022/11/11 09:55:51;;;;;;;39.00;16.55;;;;;;;9.68;100.00;103107.41;7372345;19;20030;-76
2022/11/11 09:58:25;;;;;;;32.58;16.65;;;;;;;9.67;100.00;103106.50;7372586;19;20475;-75
2022/11/11 10:01:02;;;;;;;38.58;17.38;;;;;;;9.78;100.00;103112.31;7374283;19;20101;-76
2022/11/11 10:03:39;;;;;;;33.28;15.32;;;;;;;9.88;100.00;103113.69;7372164;19;20022;-75
2022/11/11 10:06:15;;;;;;;32.28;14.32;;;;;;;9.83;100.00;103122.22;7370751;19;20006;-74
2022/11/11 10:09:01;;;;;;;30.97;13.73;;;;;;;9.86;100.00;103118.88;7370490;19;20014;-74
2022/11/11 10:11:50;;;;;;;30.50;13.45;;;;;;;9.79;100.00;103116.75;7374321;19;20007;-74
2022/11/11 10:14:20;;;;;;;27.25;13.80;;;;;;;9.72;100.00;103122.47;7376870;19;20478;-74
2022/11/11 10:17:01;;;;;;;32.95;14.25;;;;;;;9.72;100.00;103132.97;7374205;19;20006;-74
2022/11/11 10:19:41;;;;;;;29.73;13.88;;;;;;;9.83;100.00;103137.03;7374332;19;20017;-74
2022/11/11 10:22:22;;;;;;;32.90;14.05;;;;;;;9.72;100.00;103139.09;7374947;19;20488;-74
2022/11/11 10:25:01;;;;;;;31.55;13.82;;;;;;;9.75;100.00;103141.88;7372765;19;20050;-73
2022/11/11 10:27:32;;;;;;;29.02;13.75;;;;;;;9.74;100.00;103142.69;7373607;19;20050;-73
2022/11/11 10:30:15;;;;;;;26.10;12.85;;;;;;;9.82;100.00;103140.50;7375728;19;20014;-73
2022/11/11 10:32:47;;;;;;;28.30;13.85;;;;;;;9.84;100.00;103138.84;7373708;19;20026;-75
2022/11/11 10:35:23;;;;;;;30.25;13.35;;;;;;;9.76;100.00;103137.53;7374919;19;20025;-76
2022/11/11 10:38:00;;;;;;;31.60;13.73;;;;;;;9.85;100.00;103148.50;7377001;19;20015;-76
2022/11/11 10:40:42;;;;;;;29.02;14.13;;;;;;;9.93;100.00;103134.09;7373373;19;20021;-76
2022/11/11 10:43:22;;;;;;;30.45;14.73;;;;;;;9.88;100.00;103147.78;7377530;19;20011;-77
2022/11/11 10:46:01;;;;;;;28.95;13.32;;;;;;;9.95;100.00;103142.03;7375089;19;20022;-76
2022/11/11 10:48:41;;;;;;;28.77;13.95;;;;;;;10.13;100.00;103156.09;7372286;19;20011;-77
2022/11/11 10:51:17;;;;;;;30.65;13.93;;;;;;;10.01;100.00;103145.88;7373720;19;20014;-78
2022/11/11 10:53:57;;;;;;;27.27;13.63;;;;;;;10.08;100.00;103148.00;7368346;19;20018;-78
2022/11/11 10:56:31;;;;;;;31.48;13.35;;;;;;;10.22;100.00;103142.59;7376365;19;20464;-77
2022/11/11 10:59:04;;;;;;;25.40;12.73;;;;;;;10.07;100.00;103133.09;7372605;19;20029;-74
2022/11/11 11:01:40;;;;;;;25.70;12.82;;;;;;;10.23;100.00;103139.16;7372415;19;20017;-75
2022/11/11 11:04:16;;;;;;;26.48;12.55;;;;;;;10.32;100.00;103137.00;7370592;19;20373;-74
2022/11/11 11:06:54;;;;;;;29.83;14.00;;;;;;;10.30;100.00;103130.78;7369675;19;20362;-74
2022/11/11 11:09:32;;;;;;;28.05;12.77;;;;;;;10.12;100.00;103134.22;7366556;19;20014;-74
2022/11/11 11:12:09;;;;;;;26.95;12.70;;;;;;;10.15;100.00;103138.72;7364976;19;20011;-75
2022/11/11 11:14:43;;;;;;;27.70;13.07;;;;;;;10.13;100.00;103135.13;7368090;19;20014;-73
2022/11/11 11:17:19;;;;;;;32.95;14.20;;;;;;;10.20;100.00;103134.66;7372883;19;20030;-74
2022/11/11 11:20:10;;;;;;;31.10;14.25;;;;;;;10.21;100.00;103131.22;7375879;19;20043;-76
2022/11/11 11:22:54;;;;;;;24.98;11.23;;;;;;;10.32;100.00;103135.28;7376689;19;20019;-75
2022/11/11 11:25:25;;;;;;;31.42;12.95;;;;;;;10.31;100.00;103130.84;7376279;19;20014;-77
2022/11/11 11:28:07;;;;;;;29.48;12.93;;;;;;;10.29;100.00;103134.22;7373549;19;20078;-77
2022/11/11 11:30:37;;;;;;;20.38;11.13;;;;;;;10.30;100.00;103133.41;7372433;19;20104;-76
2022/11/11 11:33:09;;;;;;;27.58;12.73;;;;;;;10.27;100.00;103128.00;7372469;19;20417;-78
2022/11/11 11:35:40;;;;;;;26.92;12.65;;;;;;;10.33;100.00;103118.72;7370757;19;20523;-77
2022/11/11 11:38:15;;;;;;;24.15;12.43;;;;;;;10.44;100.00;103119.22;7367764;19;20003;-77
2022/11/11 11:40:49;;;;;;;23.27;11.68;;;;;;;10.53;100.00;103132.81;7376915;19;20269;-77
2022/11/11 11:43:34;;;;;;;25.73;12.77;;;;;;;10.46;100.00;103126.34;7381676;19;20489;-77
2022/11/11 11:46:07;;;;;;;26.80;13.32;;;;;;;10.41;100.00;103124.31;7380822;19;20035;-77
2022/11/11 11:49:14;;;;;;;27.88;12.80;;;;;;;10.28;100.00;103121.94;7383013;19;20404;-78
2022/11/11 11:51:52;;;;;;;29.80;12.38;;;;;;;10.45;100.00;103121.91;7381866;19;20021;-78
2022/11/11 11:54:40;;;;;;;25.67;11.18;;;;;;;10.61;100.00;103123.59;7382150;19;20019;-78
2022/11/11 11:57:21;;;;;;;25.50;11.20;;;;;;;10.64;100.00;103120.22;7380984;19;20020;-75
2022/11/11 11:59:57;;;;;;;24.85;10.90;;;;;;;10.82;100.00;103111.50;7377515;19;20018;-78
2022/11/11 12:03:02;;;;;;;24.27;11.30;;;;;;;10.95;100.00;103109.47;7376679;19;20041;-76
2022/11/11 12:05:39;;;;;;;23.05;11.40;;;;;;;11.23;100.00;103102.06;7372567;19;20746;-78
2022/11/11 12:08:28;;;;;;;25.92;11.32;;;;;;;11.14;100.00;103112.16;7378225;19;20030;-76
2022/11/11 12:11:07;;;;;;;25.23;12.00;;;;;;;11.33;100.00;103098.16;7375804;19;20480;-76
2022/11/11 12:13:47;;;;;;;25.33;10.77;;;;;;;11.27;100.00;103105.75;7372479;19;20007;-75
2022/11/11 12:16:27;;;;;;;24.15;11.70;;;;;;;11.48;100.00;103099.72;7374570;19;20370;-77
2022/11/11 12:19:30;;;;;;;24.13;10.82;;;;;;;11.43;100.00;103106.53;7374190;19;20457;-73
2022/11/11 12:22:08;;;;;;;26.25;10.20;;;;;;;11.60;100.00;103094.09;7375566;19;20046;-78
2022/11/11 12:24:50;;;;;;;29.67;11.73;;;;;;;11.60;100.00;103104.63;7377151;19;20010;-77
2022/11/11 12:27:33;;;;;;;21.30;10.40;;;;;;;11.63;100.00;103095.97;7377854;19;20021;-78
2022/11/11 12:30:11;;;;;;;19.23;9.30;;;;;;;11.75;100.00;103097.44;7380914;19;20015;-78
2022/11/11 12:33:03;;;;;;;20.27;11.48;;;;;;;11.77;100.00;103100.16;7371239;19;20045;-75
2022/11/11 12:35:50;;;;;;;22.88;9.40;;;;;;;12.00;100.00;103095.91;7373453;19;20015;-77
2022/11/11 12:38:51;;;;;;;21.45;9.52;;;;;;;12.33;100.00;103091.19;7374022;19;20018;-75
2022/11/11 12:41:37;;;;;;;20.17;8.93;;;;;;;12.22;100.00;103093.34;7376275;19;20339;-74
2022/11/11 12:44:16;;;;;;;17.88;9.30;;;;;;;12.30;100.00;103096.31;7372147;19;20471;-75
2022/11/11 12:46:58;;;;;;;17.70;9.10;;;;;;;12.20;100.00;103096.75;7376623;19;20002;-73
2022/11/11 12:49:44;;;;;;;16.10;8.00;;;;;;;12.18;100.00;103096.69;7372212;19;20007;-75
2022/11/11 12:52:21;;;;;;;;;;;;;;;12.36;100.00;103091.31;7370879;19;20011;-77
2022/11/11 12:55:15;;;;;;;17.98;8.63;;;;;;;12.49;100.00;103098.84;7378225;19;19948;-77
2022/11/11 12:58:00;;;;;;;17.92;7.88;;;;;;;12.51;100.00;103097.19;7374601;19;20025;-77
2022/11/11 13:00:33;;;;;;;16.80;7.93;;;;;;;12.67;100.00;103093.44;7376888;19;20014;-77
2022/11/11 13:03:19;;;;;;;17.73;8.75;;;;;;;12.61;100.00;103099.34;7376184;19;20011;-75
2022/11/11 13:05:57;;;;;;;15.75;7.38;;;;;;;12.60;100.00;103099.28;7373129;19;20014;-75
2022/11/11 13:09:07;;;;;;;16.20;7.80;;;;;;;12.54;100.00;103099.94;7374447;19;20006;-74
2022/11/11 13:11:49;;;;;;;17.48;7.72;;;;;;;12.73;100.00;103101.59;7371377;19;20089;-75
2022/11/11 13:14:42;;;;;;;14.95;7.80;;;;;;;12.68;100.00;103095.22;7375993;19;20070;-75
2022/11/11 13:17:16;;;;;;;14.43;6.43;;;;;;;12.71;100.00;103090.97;7370476;19;20537;-75
2022/11/11 13:20:05;;;;;;;16.50;6.10;;;;;;;12.93;100.00;103086.56;7371085;19;20010;-75
2022/11/11 13:22:37;;;;;;;14.80;6.43;;;;;;;12.78;100.00;103093.03;7373541;19;20010;-75
2022/11/11 13:25:14;;;;;;;14.07;6.10;;;;;;;12.83;100.00;103094.94;7371217;19;20063;-75
2022/11/11 13:27:50;;;;;;;12.18;5.68;;;;;;;12.89;100.00;103089.94;7373753;19;20065;-75
2022/11/11 13:30:43;;;;;;;14.85;6.05;;;;;;;12.93;100.00;103087.47;7371492;19;20510;-75
2022/11/11 13:33:21;;;;;;;13.57;6.53;;;;;;;13.08;100.00;103093.34;7370547;19;20021;-75
2022/11/11 13:35:57;;;;;;;14.25;6.60;;;;;;;13.02;100.00;103084.31;7370414;19;21887;-75
2022/11/11 13:38:31;;;;;;;;;;;;;;;12.85;100.00;103103.81;7375840;19;20066;-79
2022/11/11 13:41:05;;;;;;;15.13;7.35;;;;;;;12.98;100.00;103101.72;7373650;19;19911;-78
2022/11/11 13:43:37;;;;;;;11.80;6.03;;;;;;;12.83;100.00;103100.22;7370649;19;20010;-78
2022/11/11 13:46:09;;;;;;;14.27;5.57;;;;;;;12.78;100.00;103100.94;7373475;19;20021;-78
2022/11/11 13:48:49;;;;;;;16.05;7.78;;;;;;;12.72;100.00;103105.03;7373040;19;20025;-79
2022/11/11 13:51:27;;;;;;;14.60;6.22;;;;;;;12.66;100.00;103099.53;7372617;19;20021;-78
2022/11/11 13:53:57;;;;;;;15.27;6.07;;;;;;;12.68;100.00;103100.50;7367125;19;20011;-79
2022/11/11 13:56:30;;;;;;;15.52;6.32;;;;;;;12.75;100.00;103084.09;7373022;19;20021;-79
2022/11/11 13:59:00;;;;;;;13.43;6.28;;;;;;;12.60;100.00;103086.13;7374525;19;20390;-79